sensor_id;sensor_type;location;lat;lon;timestamp;temperature;humidity
46309;DHT22;32037;50.820;6.494;2022-08-11T00:02:33;28.10;36.40
46309;DHT22;32037;50.820;6.494;2022-08-11T00:05:05;28.10;36.30
46309;DHT22;32037;50.820;6.494;2022-08-11T00:07:42;28.10;36.30
46309;DHT22;32037;50.820;6.494;2022-08-11T00:10:12;28.00;36.40
46309;DHT22;32037;50.820;6.494;2022-08-11T00:12:41;28.00;36.50
46309;DHT22;32037;50.820;6.494;2022-08-11T00:15:12;28.00;36.40
46309;DHT22;32037;50.820;6.494;2022-08-11T00:17:41;28.00;36.40
46309;DHT22;32037;50.820;6.494;2022-08-11T00:20:13;28.00;36.40
46309;DHT22;32037;50.820;6.494;2022-08-11T00:22:45;28.00;36.40
46309;DHT22;32037;50.820;6.494;2022-08-11T00:25:16;28.00;36.50
46309;DHT22;32037;50.820;6.494;2022-08-11T00:27:46;28.00;36.50
46309;DHT22;32037;50.820;6.494;2022-08-11T00:30:17;28.00;36.50
46309;DHT22;32037;50.820;6.494;2022-08-11T00:32:53;28.00;36.40
46309;DHT22;32037;50.820;6.494;2022-08-11T00:35:26;28.00;36.50
46309;DHT22;32037;50.820;6.494;2022-08-11T00:38:15;28.00;36.40
46309;DHT22;32037;50.820;6.494;2022-08-11T00:40:52;28.00;36.40
46309;DHT22;32037;50.820;6.494;2022-08-11T00:43:29;28.00;36.40
46309;DHT22;32037;50.820;6.494;2022-08-11T00:46:15;28.00;36.40
46309;DHT22;32037;50.820;6.494;2022-08-11T00:48:53;28.00;36.40
46309;DHT22;32037;50.820;6.494;2022-08-11T00:55:03;28.00;36.60
46309;DHT22;32037;50.820;6.494;2022-08-11T00:58:09;28.00;36.40
46309;DHT22;32037;50.820;6.494;2022-08-11T01:01:07;28.00;36.70
46309;DHT22;32037;50.820;6.494;2022-08-11T01:04:07;28.00;36.80
46309;DHT22;32037;50.820;6.494;2022-08-11T01:10:01;27.90;36.80
46309;DHT22;32037;50.820;6.494;2022-08-11T01:12:48;28.00;36.80
46309;DHT22;32037;50.820;6.494;2022-08-11T01:18:59;28.00;36.90
46309;DHT22;32037;50.820;6.494;2022-08-11T01:22:01;28.00;36.50
46309;DHT22;32037;50.820;6.494;2022-08-11T01:24:55;28.00;36.80
46309;DHT22;32037;50.820;6.494;2022-08-11T01:31:12;27.90;36.60
46309;DHT22;32037;50.820;6.494;2022-08-11T01:34:07;27.90;36.50
46309;DHT22;32037;50.820;6.494;2022-08-11T01:37:11;27.90;36.80
46309;DHT22;32037;50.820;6.494;2022-08-11T01:40:14;27.90;37.00
46309;DHT22;32037;50.820;6.494;2022-08-11T01:46:14;27.90;36.80
46309;DHT22;32037;50.820;6.494;2022-08-11T01:48:56;27.90;38.10
46309;DHT22;32037;50.820;6.494;2022-08-11T01:52:01;27.90;38.10
46309;DHT22;32037;50.820;6.494;2022-08-11T01:54:40;27.90;36.60
46309;DHT22;32037;50.820;6.494;2022-08-11T01:57:19;27.90;37.00
46309;DHT22;32037;50.820;6.494;2022-08-11T01:59:50;27.90;37.00
46309;DHT22;32037;50.820;6.494;2022-08-11T02:02:38;27.90;36.90
46309;DHT22;32037;50.820;6.494;2022-08-11T02:05:35;27.90;36.90
46309;DHT22;32037;50.820;6.494;2022-08-11T02:08:23;27.90;36.80
46309;DHT22;32037;50.820;6.494;2022-08-11T02:11:12;27.90;36.80
46309;DHT22;32037;50.820;6.494;2022-08-11T02:14:20;27.90;36.80
46309;DHT22;32037;50.820;6.494;2022-08-11T02:17:08;27.90;36.70
46309;DHT22;32037;50.820;6.494;2022-08-11T02:19:47;27.90;36.90
46309;DHT22;32037;50.820;6.494;2022-08-11T02:22:41;27.90;36.80
46309;DHT22;32037;50.820;6.494;2022-08-11T02:25:36;27.80;36.80
46309;DHT22;32037;50.820;6.494;2022-08-11T02:28:11;27.80;36.80
46309;DHT22;32037;50.820;6.494;2022-08-11T02:30:57;27.80;36.70
46309;DHT22;32037;50.820;6.494;2022-08-11T02:34:13;27.80;36.90
46309;DHT22;32037;50.820;6.494;2022-08-11T02:36:54;27.80;36.80
46309;DHT22;32037;50.820;6.494;2022-08-11T02:39:28;27.80;36.80
46309;DHT22;32037;50.820;6.494;2022-08-11T02:42:15;27.80;36.70
46309;DHT22;32037;50.820;6.494;2022-08-11T02:45:25;27.80;36.60
46309;DHT22;32037;50.820;6.494;2022-08-11T02:48:02;27.80;36.70
46309;DHT22;32037;50.820;6.494;2022-08-11T02:50:55;27.80;36.50
46309;DHT22;32037;50.820;6.494;2022-08-11T02:53:36;27.80;36.60
46309;DHT22;32037;50.820;6.494;2022-08-11T02:56:13;27.70;36.40
46309;DHT22;32037;50.820;6.494;2022-08-11T02:58:54;27.70;36.70
46309;DHT22;32037;50.820;6.494;2022-08-11T03:01:47;27.70;36.60
46309;DHT22;32037;50.820;6.494;2022-08-11T03:04:21;27.80;36.60
46309;DHT22;32037;50.820;6.494;2022-08-11T03:07:11;27.80;36.70
46309;DHT22;32037;50.820;6.494;2022-08-11T03:10:03;27.70;36.70
46309;DHT22;32037;50.820;6.494;2022-08-11T03:12:48;27.70;36.60
46309;DHT22;32037;50.820;6.494;2022-08-11T03:15:43;27.70;36.60
46309;DHT22;32037;50.820;6.494;2022-08-11T03:18:33;27.70;36.50
46309;DHT22;32037;50.820;6.494;2022-08-11T03:21:10;27.70;36.60
46309;DHT22;32037;50.820;6.494;2022-08-11T03:23:48;27.70;36.70
46309;DHT22;32037;50.820;6.494;2022-08-11T03:26:27;27.60;36.70
46309;DHT22;32037;50.820;6.494;2022-08-11T03:29:04;27.70;36.70
46309;DHT22;32037;50.820;6.494;2022-08-11T03:31:36;27.70;36.60
46309;DHT22;32037;50.820;6.494;2022-08-11T03:34:17;27.70;36.70
46309;DHT22;32037;50.820;6.494;2022-08-11T03:37:24;27.70;36.50
46309;DHT22;32037;50.820;6.494;2022-08-11T03:40:27;27.60;36.60
46309;DHT22;32037;50.820;6.494;2022-08-11T03:43:26;27.60;36.70
46309;DHT22;32037;50.820;6.494;2022-08-11T03:46:01;27.70;36.60
46309;DHT22;32037;50.820;6.494;2022-08-11T03:48:42;27.60;36.60
46309;DHT22;32037;50.820;6.494;2022-08-11T03:51:22;27.60;36.50
46309;DHT22;32037;50.820;6.494;2022-08-11T03:54:15;27.60;36.50
46309;DHT22;32037;50.820;6.494;2022-08-11T04:00:10;27.60;36.60
46309;DHT22;32037;50.820;6.494;2022-08-11T04:15:43;27.60;36.70
46309;DHT22;32037;50.820;6.494;2022-08-11T04:22:30;27.60;36.70
46309;DHT22;32037;50.820;6.494;2022-08-11T04:28:47;27.50;36.60
46309;DHT22;32037;50.820;6.494;2022-08-11T04:31:35;27.50;36.70
46309;DHT22;32037;50.820;6.494;2022-08-11T04:34:43;27.50;36.50
46309;DHT22;32037;50.820;6.494;2022-08-11T04:37:32;27.50;36.60
46309;DHT22;32037;50.820;6.494;2022-08-11T04:47:05;27.50;36.70
46309;DHT22;32037;50.820;6.494;2022-08-11T04:49:54;27.50;36.50
46309;DHT22;32037;50.820;6.494;2022-08-11T04:56:06;27.50;36.70
46309;DHT22;32037;50.820;6.494;2022-08-11T04:59:19;27.50;36.60
46309;DHT22;32037;50.820;6.494;2022-08-11T05:02:36;27.50;36.70
46309;DHT22;32037;50.820;6.494;2022-08-11T05:05:19;27.40;36.40
46309;DHT22;32037;50.820;6.494;2022-08-11T05:08:42;27.40;36.70
46309;DHT22;32037;50.820;6.494;2022-08-11T05:11:52;27.40;36.60
46309;DHT22;32037;50.820;6.494;2022-08-11T05:14:37;27.40;36.40
46309;DHT22;32037;50.820;6.494;2022-08-11T05:17:37;27.40;36.70
46309;DHT22;32037;50.820;6.494;2022-08-11T05:20:24;27.40;36.70
46309;DHT22;32037;50.820;6.494;2022-08-11T05:23:12;27.40;36.70
46309;DHT22;32037;50.820;6.494;2022-08-11T05:26:01;27.40;36.70
46309;DHT22;32037;50.820;6.494;2022-08-11T05:29:23;27.30;36.80
46309;DHT22;32037;50.820;6.494;2022-08-11T05:32:12;27.30;36.90
46309;DHT22;32037;50.820;6.494;2022-08-11T05:35:03;27.40;36.90
46309;DHT22;32037;50.820;6.494;2022-08-11T05:37:40;27.30;37.00
46309;DHT22;32037;50.820;6.494;2022-08-11T05:40:23;27.30;36.90
46309;DHT22;32037;50.820;6.494;2022-08-11T05:43:17;27.30;36.70
46309;DHT22;32037;50.820;6.494;2022-08-11T05:46:23;27.30;36.80
46309;DHT22;32037;50.820;6.494;2022-08-11T05:49:35;27.30;36.80
46309;DHT22;32037;50.820;6.494;2022-08-11T05:52:27;27.30;36.80
46309;DHT22;32037;50.820;6.494;2022-08-11T05:55:22;27.30;36.70
46309;DHT22;32037;50.820;6.494;2022-08-11T05:58:33;27.30;36.70
46309;DHT22;32037;50.820;6.494;2022-08-11T06:01:08;27.30;37.20
46309;DHT22;32037;50.820;6.494;2022-08-11T06:03:37;27.30;37.40
46309;DHT22;32037;50.820;6.494;2022-08-11T06:06:26;27.30;37.20
46309;DHT22;32037;50.820;6.494;2022-08-11T06:08:57;27.20;36.80
46309;DHT22;32037;50.820;6.494;2022-08-11T06:11:27;27.10;36.70
46309;DHT22;32037;50.820;6.494;2022-08-11T06:14:11;27.10;36.40
46309;DHT22;32037;50.820;6.494;2022-08-11T06:16:42;27.00;36.50
46309;DHT22;32037;50.820;6.494;2022-08-11T06:19:14;27.00;36.30
46309;DHT22;32037;50.820;6.494;2022-08-11T06:21:44;27.00;36.20
46309;DHT22;32037;50.820;6.494;2022-08-11T06:24:15;27.00;35.70
46309;DHT22;32037;50.820;6.494;2022-08-11T06:26:49;26.90;35.80
46309;DHT22;32037;50.820;6.494;2022-08-11T06:29:45;26.90;35.80
46309;DHT22;32037;50.820;6.494;2022-08-11T06:32:23;26.90;35.20
46309;DHT22;32037;50.820;6.494;2022-08-11T06:35:11;26.90;35.60
46309;DHT22;32037;50.820;6.494;2022-08-11T06:37:57;26.90;35.50
46309;DHT22;32037;50.820;6.494;2022-08-11T06:40:35;26.90;35.60
46309;DHT22;32037;50.820;6.494;2022-08-11T06:43:10;26.90;35.10
46309;DHT22;32037;50.820;6.494;2022-08-11T06:45:49;26.90;34.30
46309;DHT22;32037;50.820;6.494;2022-08-11T06:48:21;27.00;34.40
46309;DHT22;32037;50.820;6.494;2022-08-11T06:50:51;27.20;33.70
46309;DHT22;32037;50.820;6.494;2022-08-11T06:53:41;27.30;33.00
46309;DHT22;32037;50.820;6.494;2022-08-11T06:56:35;27.50;32.70
46309;DHT22;32037;50.820;6.494;2022-08-11T06:59:42;27.60;32.40
46309;DHT22;32037;50.820;6.494;2022-08-11T07:02:30;27.70;31.80
46309;DHT22;32037;50.820;6.494;2022-08-11T07:05:03;27.80;31.70
46309;DHT22;32037;50.820;6.494;2022-08-11T07:11:29;27.50;31.90
46309;DHT22;32037;50.820;6.494;2022-08-11T07:14:26;27.30;31.80
46309;DHT22;32037;50.820;6.494;2022-08-11T07:17:16;27.20;31.80
46309;DHT22;32037;50.820;6.494;2022-08-11T07:19:49;27.10;31.80
46309;DHT22;32037;50.820;6.494;2022-08-11T07:22:44;26.90;32.20
46309;DHT22;32037;50.820;6.494;2022-08-11T07:25:38;26.80;31.80
46309;DHT22;32037;50.820;6.494;2022-08-11T07:28:26;26.80;32.00
46309;DHT22;32037;50.820;6.494;2022-08-11T07:31:25;26.80;32.10
46309;DHT22;32037;50.820;6.494;2022-08-11T07:34:04;26.80;32.60
46309;DHT22;32037;50.820;6.494;2022-08-11T07:36:46;26.90;32.50
46309;DHT22;32037;50.820;6.494;2022-08-11T07:39:19;26.90;34.00
46309;DHT22;32037;50.820;6.494;2022-08-11T07:41:50;26.90;31.90
46309;DHT22;32037;50.820;6.494;2022-08-11T07:44:19;27.00;32.50
46309;DHT22;32037;50.820;6.494;2022-08-11T07:46:49;27.00;32.80
46309;DHT22;32037;50.820;6.494;2022-08-11T07:49:38;27.00;31.60
46309;DHT22;32037;50.820;6.494;2022-08-11T07:52:27;27.00;32.10
46309;DHT22;32037;50.820;6.494;2022-08-11T07:55:03;27.00;31.40
46309;DHT22;32037;50.820;6.494;2022-08-11T07:57:34;27.00;32.10
46309;DHT22;32037;50.820;6.494;2022-08-11T08:00:43;27.10;32.40
46309;DHT22;32037;50.820;6.494;2022-08-11T08:03:38;27.10;32.70
46309;DHT22;32037;50.820;6.494;2022-08-11T08:06:25;27.10;32.60
46309;DHT22;32037;50.820;6.494;2022-08-11T08:09:13;27.10;32.30
46309;DHT22;32037;50.820;6.494;2022-08-11T08:12:02;27.10;32.90
46309;DHT22;32037;50.820;6.494;2022-08-11T08:14:49;27.10;31.50
46309;DHT22;32037;50.820;6.494;2022-08-11T08:17:36;27.10;31.90
46309;DHT22;32037;50.820;6.494;2022-08-11T08:20:44;27.20;32.00
46309;DHT22;32037;50.820;6.494;2022-08-11T08:23:13;27.20;31.40
46309;DHT22;32037;50.820;6.494;2022-08-11T08:25:45;27.20;30.90
46309;DHT22;32037;50.820;6.494;2022-08-11T08:28:15;27.30;31.10
46309;DHT22;32037;50.820;6.494;2022-08-11T08:30:44;27.30;30.80
46309;DHT22;32037;50.820;6.494;2022-08-11T08:33:19;27.30;30.60
46309;DHT22;32037;50.820;6.494;2022-08-11T08:35:51;27.30;29.40
46309;DHT22;32037;50.820;6.494;2022-08-11T08:38:39;27.30;30.40
46309;DHT22;32037;50.820;6.494;2022-08-11T08:41:08;27.30;31.30
46309;DHT22;32037;50.820;6.494;2022-08-11T08:43:44;27.30;31.80
46309;DHT22;32037;50.820;6.494;2022-08-11T08:46:20;27.20;32.00
46309;DHT22;32037;50.820;6.494;2022-08-11T08:48:50;27.10;32.10
46309;DHT22;32037;50.820;6.494;2022-08-11T08:51:21;27.10;32.60
46309;DHT22;32037;50.820;6.494;2022-08-11T08:54:26;27.10;33.00
46309;DHT22;32037;50.820;6.494;2022-08-11T08:56:56;27.10;33.10
46309;DHT22;32037;50.820;6.494;2022-08-11T08:59:26;27.00;33.20
46309;DHT22;32037;50.820;6.494;2022-08-11T09:02:16;27.00;33.40
46309;DHT22;32037;50.820;6.494;2022-08-11T09:05:01;27.00;33.50
46309;DHT22;32037;50.820;6.494;2022-08-11T09:07:32;27.00;33.50
46309;DHT22;32037;50.820;6.494;2022-08-11T09:10:07;27.00;33.20
46309;DHT22;32037;50.820;6.494;2022-08-11T09:12:39;27.00;32.80
46309;DHT22;32037;50.820;6.494;2022-08-11T09:15:10;27.00;32.90
46309;DHT22;32037;50.820;6.494;2022-08-11T09:17:46;27.00;32.90
46309;DHT22;32037;50.820;6.494;2022-08-11T09:20:18;27.00;33.00
46309;DHT22;32037;50.820;6.494;2022-08-11T09:22:50;27.00;33.30
46309;DHT22;32037;50.820;6.494;2022-08-11T09:25:58;27.00;33.50
46309;DHT22;32037;50.820;6.494;2022-08-11T09:28:46;27.00;33.50
46309;DHT22;32037;50.820;6.494;2022-08-11T09:31:16;27.00;33.70
46309;DHT22;32037;50.820;6.494;2022-08-11T09:33:51;27.00;33.70
46309;DHT22;32037;50.820;6.494;2022-08-11T09:36:21;27.00;33.60
46309;DHT22;32037;50.820;6.494;2022-08-11T09:39:09;27.00;33.70
46309;DHT22;32037;50.820;6.494;2022-08-11T09:41:59;27.00;33.70
46309;DHT22;32037;50.820;6.494;2022-08-11T09:44:31;27.00;33.60
46309;DHT22;32037;50.820;6.494;2022-08-11T09:47:23;27.00;33.70
46309;DHT22;32037;50.820;6.494;2022-08-11T09:49:55;27.00;33.50
46309;DHT22;32037;50.820;6.494;2022-08-11T09:52:28;27.00;33.50
46309;DHT22;32037;50.820;6.494;2022-08-11T09:55:00;27.00;33.50
46309;DHT22;32037;50.820;6.494;2022-08-11T09:57:29;27.00;33.60
46309;DHT22;32037;50.820;6.494;2022-08-11T10:00:15;27.00;33.60
46309;DHT22;32037;50.820;6.494;2022-08-11T10:02:46;27.00;33.60
46309;DHT22;32037;50.820;6.494;2022-08-11T10:05:17;27.00;33.70
46309;DHT22;32037;50.820;6.494;2022-08-11T10:08:04;27.00;33.70
46309;DHT22;32037;50.820;6.494;2022-08-11T10:10:38;27.00;33.50
46309;DHT22;32037;50.820;6.494;2022-08-11T10:13:08;27.00;33.30
46309;DHT22;32037;50.820;6.494;2022-08-11T10:16:00;27.00;33.20
46309;DHT22;32037;50.820;6.494;2022-08-11T10:18:45;27.00;33.40
46309;DHT22;32037;50.820;6.494;2022-08-11T10:21:27;27.00;33.10
46309;DHT22;32037;50.820;6.494;2022-08-11T10:23:59;27.00;33.20
46309;DHT22;32037;50.820;6.494;2022-08-11T10:26:49;26.90;32.90
46309;DHT22;32037;50.820;6.494;2022-08-11T10:29:22;27.00;32.90
46309;DHT22;32037;50.820;6.494;2022-08-11T10:32:20;27.00;32.70
46309;DHT22;32037;50.820;6.494;2022-08-11T10:35:24;26.90;32.80
46309;DHT22;32037;50.820;6.494;2022-08-11T10:37:53;27.00;32.60
46309;DHT22;32037;50.820;6.494;2022-08-11T10:40:37;27.00;32.50
46309;DHT22;32037;50.820;6.494;2022-08-11T10:43:10;27.00;33.70
46309;DHT22;32037;50.820;6.494;2022-08-11T10:45:44;26.90;32.30
46309;DHT22;32037;50.820;6.494;2022-08-11T10:48:35;26.90;32.20
46309;DHT22;32037;50.820;6.494;2022-08-11T10:51:07;26.90;32.20
46309;DHT22;32037;50.820;6.494;2022-08-11T10:54:04;27.00;32.30
46309;DHT22;32037;50.820;6.494;2022-08-11T10:56:53;26.90;32.10
46309;DHT22;32037;50.820;6.494;2022-08-11T10:59:41;27.00;32.10
46309;DHT22;32037;50.820;6.494;2022-08-11T11:02:12;27.00;31.90
46309;DHT22;32037;50.820;6.494;2022-08-11T11:04:56;27.00;31.80
46309;DHT22;32037;50.820;6.494;2022-08-11T11:07:36;27.00;32.00
46309;DHT22;32037;50.820;6.494;2022-08-11T11:10:10;27.00;32.00
46309;DHT22;32037;50.820;6.494;2022-08-11T11:12:41;27.00;32.00
46309;DHT22;32037;50.820;6.494;2022-08-11T11:15:30;27.00;32.00
46309;DHT22;32037;50.820;6.494;2022-08-11T11:18:19;27.00;31.90
46309;DHT22;32037;50.820;6.494;2022-08-11T11:20:53;27.00;31.80
46309;DHT22;32037;50.820;6.494;2022-08-11T11:23:25;27.00;31.90
46309;DHT22;32037;50.820;6.494;2022-08-11T11:26:12;27.00;31.80
46309;DHT22;32037;50.820;6.494;2022-08-11T11:29:30;27.00;31.80
46309;DHT22;32037;50.820;6.494;2022-08-11T11:32:11;27.00;32.00
46309;DHT22;32037;50.820;6.494;2022-08-11T11:34:57;27.00;31.70
46309;DHT22;32037;50.820;6.494;2022-08-11T11:37:29;27.00;31.80
46309;DHT22;32037;50.820;6.494;2022-08-11T11:40:00;27.00;31.90
46309;DHT22;32037;50.820;6.494;2022-08-11T11:42:29;27.00;31.70
46309;DHT22;32037;50.820;6.494;2022-08-11T11:44:58;27.00;31.80
46309;DHT22;32037;50.820;6.494;2022-08-11T11:47:29;27.00;31.70
46309;DHT22;32037;50.820;6.494;2022-08-11T11:49:59;27.00;31.90
46309;DHT22;32037;50.820;6.494;2022-08-11T11:52:31;27.00;31.90
46309;DHT22;32037;50.820;6.494;2022-08-11T11:55:16;27.00;32.00
46309;DHT22;32037;50.820;6.494;2022-08-11T11:57:45;27.00;32.00
46309;DHT22;32037;50.820;6.494;2022-08-11T12:00:32;27.00;32.00
46309;DHT22;32037;50.820;6.494;2022-08-11T12:03:20;27.00;32.00
46309;DHT22;32037;50.820;6.494;2022-08-11T12:05:49;27.00;32.00
46309;DHT22;32037;50.820;6.494;2022-08-11T12:08:20;27.00;31.80
46309;DHT22;32037;50.820;6.494;2022-08-11T12:10:54;27.10;32.00
46309;DHT22;32037;50.820;6.494;2022-08-11T12:13:39;27.10;31.80
46309;DHT22;32037;50.820;6.494;2022-08-11T12:16:09;27.10;31.80
46309;DHT22;32037;50.820;6.494;2022-08-11T12:19:05;27.00;31.80
46309;DHT22;32037;50.820;6.494;2022-08-11T12:21:35;27.10;31.90
46309;DHT22;32037;50.820;6.494;2022-08-11T12:24:04;27.10;31.80
46309;DHT22;32037;50.820;6.494;2022-08-11T12:26:56;27.10;31.80
46309;DHT22;32037;50.820;6.494;2022-08-11T12:29:46;27.10;31.90
46309;DHT22;32037;50.820;6.494;2022-08-11T12:32:23;27.10;31.80
46309;DHT22;32037;50.820;6.494;2022-08-11T12:35:09;27.10;31.90
46309;DHT22;32037;50.820;6.494;2022-08-11T12:37:52;27.10;31.80
46309;DHT22;32037;50.820;6.494;2022-08-11T12:40:31;27.10;31.80
46309;DHT22;32037;50.820;6.494;2022-08-11T12:43:42;27.10;33.00
46309;DHT22;32037;50.820;6.494;2022-08-11T12:46:31;27.10;31.60
46309;DHT22;32037;50.820;6.494;2022-08-11T12:49:07;27.10;31.60
46309;DHT22;32037;50.820;6.494;2022-08-11T12:51:57;27.10;31.70
46309;DHT22;32037;50.820;6.494;2022-08-11T12:54:47;27.10;31.60
46309;DHT22;32037;50.820;6.494;2022-08-11T12:57:23;27.10;31.50
46309;DHT22;32037;50.820;6.494;2022-08-11T13:00:10;27.10;31.60
46309;DHT22;32037;50.820;6.494;2022-08-11T13:02:57;27.10;31.50
46309;DHT22;32037;50.820;6.494;2022-08-11T13:05:45;27.20;31.80
46309;DHT22;32037;50.820;6.494;2022-08-11T13:08:17;27.20;31.70
46309;DHT22;32037;50.820;6.494;2022-08-11T13:10:49;27.20;31.70
46309;DHT22;32037;50.820;6.494;2022-08-11T13:13:37;27.20;31.70
46309;DHT22;32037;50.820;6.494;2022-08-11T13:16:24;27.20;31.70
46309;DHT22;32037;50.820;6.494;2022-08-11T13:18:53;27.20;31.60
46309;DHT22;32037;50.820;6.494;2022-08-11T13:21:23;27.20;31.70
46309;DHT22;32037;50.820;6.494;2022-08-11T13:23:53;27.20;31.70
46309;DHT22;32037;50.820;6.494;2022-08-11T13:26:29;27.20;31.70
46309;DHT22;32037;50.820;6.494;2022-08-11T13:29:15;27.20;31.70
46309;DHT22;32037;50.820;6.494;2022-08-11T13:31:45;27.20;33.10
46309;DHT22;32037;50.820;6.494;2022-08-11T13:34:14;27.30;32.00
46309;DHT22;32037;50.820;6.494;2022-08-11T13:36:44;27.30;32.90
46309;DHT22;32037;50.820;6.494;2022-08-11T13:39:14;27.30;31.70
46309;DHT22;32037;50.820;6.494;2022-08-11T13:41:43;27.40;31.80
46309;DHT22;32037;50.820;6.494;2022-08-11T13:44:15;27.30;31.70
46309;DHT22;32037;50.820;6.494;2022-08-11T13:46:52;27.40;31.40
46309;DHT22;32037;50.820;6.494;2022-08-11T13:49:22;27.40;31.10
46309;DHT22;32037;50.820;6.494;2022-08-11T13:51:51;27.40;31.20
46309;DHT22;32037;50.820;6.494;2022-08-11T13:54:25;27.40;31.50
46309;DHT22;32037;50.820;6.494;2022-08-11T13:56:56;27.40;31.80
46309;DHT22;32037;50.820;6.494;2022-08-11T13:59:27;27.40;31.50
46309;DHT22;32037;50.820;6.494;2022-08-11T14:02:00;27.40;31.60
46309;DHT22;32037;50.820;6.494;2022-08-11T14:04:54;27.40;32.90
46309;DHT22;32037;50.820;6.494;2022-08-11T14:07:24;27.40;31.80
46309;DHT22;32037;50.820;6.494;2022-08-11T14:09:57;27.40;31.70
46309;DHT22;32037;50.820;6.494;2022-08-11T14:12:28;27.40;31.80
46309;DHT22;32037;50.820;6.494;2022-08-11T14:15:18;27.40;31.80
46309;DHT22;32037;50.820;6.494;2022-08-11T14:17:50;27.40;31.90
46309;DHT22;32037;50.820;6.494;2022-08-11T14:20:20;27.40;31.80
46309;DHT22;32037;50.820;6.494;2022-08-11T14:23:09;27.40;31.80
46309;DHT22;32037;50.820;6.494;2022-08-11T14:25:41;27.40;31.90
46309;DHT22;32037;50.820;6.494;2022-08-11T14:28:32;27.40;31.80
46309;DHT22;32037;50.820;6.494;2022-08-11T14:31:08;27.50;31.60
46309;DHT22;32037;50.820;6.494;2022-08-11T14:33:37;27.60;30.60
46309;DHT22;32037;50.820;6.494;2022-08-11T14:36:27;27.60;31.10
46309;DHT22;32037;50.820;6.494;2022-08-11T14:38:57;27.70;31.50
46309;DHT22;32037;50.820;6.494;2022-08-11T14:41:27;27.80;31.40
46309;DHT22;32037;50.820;6.494;2022-08-11T14:44:35;27.80;31.50
46309;DHT22;32037;50.820;6.494;2022-08-11T14:47:22;27.80;31.30
46309;DHT22;32037;50.820;6.494;2022-08-11T14:49:53;27.80;31.40
46309;DHT22;32037;50.820;6.494;2022-08-11T14:52:42;27.90;31.30
46309;DHT22;32037;50.820;6.494;2022-08-11T14:55:12;27.90;31.30
46309;DHT22;32037;50.820;6.494;2022-08-11T14:58:00;27.90;31.30
46309;DHT22;32037;50.820;6.494;2022-08-11T15:00:30;28.00;31.50
46309;DHT22;32037;50.820;6.494;2022-08-11T15:03:02;28.00;31.50
46309;DHT22;32037;50.820;6.494;2022-08-11T15:05:47;28.00;31.60
46309;DHT22;32037;50.820;6.494;2022-08-11T15:08:27;28.00;31.60
46309;DHT22;32037;50.820;6.494;2022-08-11T15:11:16;28.00;31.60
46309;DHT22;32037;50.820;6.494;2022-08-11T15:14:06;28.00;31.60
46309;DHT22;32037;50.820;6.494;2022-08-11T15:16:37;28.00;31.30
46309;DHT22;32037;50.820;6.494;2022-08-11T15:19:25;28.00;31.50
46309;DHT22;32037;50.820;6.494;2022-08-11T15:22:08;28.00;31.60
46309;DHT22;32037;50.820;6.494;2022-08-11T15:24:56;28.00;31.60
46309;DHT22;32037;50.820;6.494;2022-08-11T15:27:26;28.00;31.60
46309;DHT22;32037;50.820;6.494;2022-08-11T15:30:16;28.00;31.70
46309;DHT22;32037;50.820;6.494;2022-08-11T15:33:05;28.10;31.60
46309;DHT22;32037;50.820;6.494;2022-08-11T15:35:52;28.10;31.80
46309;DHT22;32037;50.820;6.494;2022-08-11T15:38:43;28.10;31.80
46309;DHT22;32037;50.820;6.494;2022-08-11T15:41:22;28.10;31.90
46309;DHT22;32037;50.820;6.494;2022-08-11T15:44:11;28.10;31.80
46309;DHT22;32037;50.820;6.494;2022-08-11T15:47:25;28.10;31.90
46309;DHT22;32037;50.820;6.494;2022-08-11T15:49:57;28.10;31.70
46309;DHT22;32037;50.820;6.494;2022-08-11T15:52:45;28.10;31.80
46309;DHT22;32037;50.820;6.494;2022-08-11T15:55:16;28.10;31.70
46309;DHT22;32037;50.820;6.494;2022-08-11T15:57:46;28.10;31.70
46309;DHT22;32037;50.820;6.494;2022-08-11T16:00:36;28.10;31.80
46309;DHT22;32037;50.820;6.494;2022-08-11T16:03:38;28.10;31.80
46309;DHT22;32037;50.820;6.494;2022-08-11T16:06:36;28.10;32.00
46309;DHT22;32037;50.820;6.494;2022-08-11T16:09:19;28.10;31.90
46309;DHT22;32037;50.820;6.494;2022-08-11T16:11:50;28.10;32.10
46309;DHT22;32037;50.820;6.494;2022-08-11T16:14:20;28.10;32.10
46309;DHT22;32037;50.820;6.494;2022-08-11T16:17:10;28.20;32.20
46309;DHT22;32037;50.820;6.494;2022-08-11T16:19:41;28.20;32.20
46309;DHT22;32037;50.820;6.494;2022-08-11T16:22:11;28.20;32.20
46309;DHT22;32037;50.820;6.494;2022-08-11T16:24:44;28.20;32.10
46309;DHT22;32037;50.820;6.494;2022-08-11T16:27:36;28.20;32.10
46309;DHT22;32037;50.820;6.494;2022-08-11T16:30:06;28.20;32.10
46309;DHT22;32037;50.820;6.494;2022-08-11T16:32:39;28.20;32.00
46309;DHT22;32037;50.820;6.494;2022-08-11T16:35:14;28.20;32.10
46309;DHT22;32037;50.820;6.494;2022-08-11T16:38:02;28.20;31.90
46309;DHT22;32037;50.820;6.494;2022-08-11T16:40:51;28.20;31.90
46309;DHT22;32037;50.820;6.494;2022-08-11T16:43:23;28.20;31.80
46309;DHT22;32037;50.820;6.494;2022-08-11T16:46:12;28.20;31.70
46309;DHT22;32037;50.820;6.494;2022-08-11T16:49:01;28.20;32.00
46309;DHT22;32037;50.820;6.494;2022-08-11T16:51:32;28.20;31.90
46309;DHT22;32037;50.820;6.494;2022-08-11T16:54:01;28.30;31.90
46309;DHT22;32037;50.820;6.494;2022-08-11T16:56:36;28.30;31.90
46309;DHT22;32037;50.820;6.494;2022-08-11T16:59:07;28.30;31.70
46309;DHT22;32037;50.820;6.494;2022-08-11T17:01:46;28.20;31.60
46309;DHT22;32037;50.820;6.494;2022-08-11T17:04:30;28.20;31.80
46309;DHT22;32037;50.820;6.494;2022-08-11T17:07:20;28.30;32.00
46309;DHT22;32037;50.820;6.494;2022-08-11T17:10:18;28.20;31.90
46309;DHT22;32037;50.820;6.494;2022-08-11T17:13:28;28.30;32.10
46309;DHT22;32037;50.820;6.494;2022-08-11T17:16:01;28.30;32.10
46309;DHT22;32037;50.820;6.494;2022-08-11T17:18:43;28.30;32.10
46309;DHT22;32037;50.820;6.494;2022-08-11T17:21:19;28.30;32.20
46309;DHT22;32037;50.820;6.494;2022-08-11T17:23:52;28.30;32.20
46309;DHT22;32037;50.820;6.494;2022-08-11T17:26:26;28.30;32.30
46309;DHT22;32037;50.820;6.494;2022-08-11T17:29:17;28.30;32.20
46309;DHT22;32037;50.820;6.494;2022-08-11T17:31:46;28.30;32.30
46309;DHT22;32037;50.820;6.494;2022-08-11T17:34:33;28.30;32.20
46309;DHT22;32037;50.820;6.494;2022-08-11T17:37:20;28.40;32.30
46309;DHT22;32037;50.820;6.494;2022-08-11T17:39:52;28.40;32.30
46309;DHT22;32037;50.820;6.494;2022-08-11T17:42:26;28.40;32.20
46309;DHT22;32037;50.820;6.494;2022-08-11T17:45:14;28.40;32.10
46309;DHT22;32037;50.820;6.494;2022-08-11T17:48:00;28.40;32.30
46309;DHT22;32037;50.820;6.494;2022-08-11T17:50:47;28.30;32.30
46309;DHT22;32037;50.820;6.494;2022-08-11T17:53:16;28.30;32.40
46309;DHT22;32037;50.820;6.494;2022-08-11T17:56:05;28.40;32.40
46309;DHT22;32037;50.820;6.494;2022-08-11T17:58:52;28.40;32.40
46309;DHT22;32037;50.820;6.494;2022-08-11T18:01:40;28.40;32.40